East Masonville, New York
Current Conditions -  °F | °C
As of 6:53 PM on Sunday 25 Jan 2015 (Local Time) from KBGM Reporting Station
Clear Clear  
Wind Chill: -2°   Ceiling: Unl
Heat Index: 13°   Visibility: 10mi
Dew Point:   Wind: 14mph
Humidity: 67%   Direction: 360°N
Pressure: 29.87"   Gusts: NA
Location:  42.2309°N, 75.2943°W
Report Text: KBGM 252353Z 36012KT 10SM CLR M11/M16 A2987 RMK AO2 SLP141 T11061156 11056 21106 51016
Loading
Personal Weather Stations






























Interactive Weather Map New forecast layout! Learn more

10-Day Weather Forecast

Advertisements
Track Severe Weather on mobile